createdAt,value
2023-05-25T00:01:54.280Z,11.20
2023-05-25T00:04:58.368Z,11.16
2023-05-25T00:08:02.212Z,11.16
2023-05-25T00:11:06.261Z,11.16
2023-05-25T00:14:10.394Z,11.17
2023-05-25T00:17:15.334Z,11.24
2023-05-25T00:20:19.680Z,11.19
2023-05-25T00:23:23.865Z,11.14
2023-05-25T00:26:27.888Z,11.10
2023-05-25T00:29:31.721Z,11.06
2023-05-25T00:32:35.521Z,11.01
2023-05-25T00:35:39.436Z,10.94
2023-05-25T00:38:43.658Z,10.96
2023-05-25T00:41:49.579Z,10.93
2023-05-25T00:44:54.317Z,10.91
2023-05-25T00:48:01.046Z,10.91
2023-05-25T00:51:05.391Z,10.82
2023-05-25T00:54:09.171Z,10.80
2023-05-25T00:57:14.720Z,10.85
2023-05-25T01:00:21.203Z,10.92
2023-05-25T01:03:29.711Z,10.94
2023-05-25T01:06:36.114Z,10.91
2023-05-25T01:09:44.107Z,10.87
2023-05-25T01:12:53.293Z,10.81
2023-05-25T01:15:58.184Z,10.81
2023-05-25T01:19:02.942Z,10.77
2023-05-25T01:22:20.468Z,10.74
2023-05-25T01:25:45.655Z,10.78
2023-05-25T01:28:53.008Z,10.75
2023-05-25T01:31:58.529Z,10.70
2023-05-25T01:35:04.447Z,10.73
2023-05-25T01:38:09.667Z,10.71
2023-05-25T01:41:13.540Z,10.65
2023-05-25T01:44:18.488Z,10.65
2023-05-25T01:47:46.816Z,10.62
2023-05-25T01:50:53.629Z,10.58
2023-05-25T01:54:09.258Z,10.57
2023-05-25T01:57:17.561Z,10.49
2023-05-25T02:00:22.574Z,10.38
2023-05-25T02:03:26.971Z,10.42
2023-05-25T02:06:31.841Z,10.43
2023-05-25T02:09:36.041Z,10.41
2023-05-25T02:12:40.158Z,10.43
2023-05-25T02:15:44.588Z,10.43
2023-05-25T02:18:48.908Z,10.38
2023-05-25T02:21:53.082Z,10.35
2023-05-25T02:24:57.428Z,10.39
2023-05-25T02:28:01.605Z,10.41
2023-05-25T02:31:05.903Z,10.41
2023-05-25T02:34:11.678Z,10.40
2023-05-25T02:37:15.645Z,10.45
2023-05-25T02:40:19.919Z,10.40
2023-05-25T02:43:24.059Z,10.40
2023-05-25T02:46:28.512Z,10.36
2023-05-25T02:49:33.450Z,10.37
2023-05-25T02:52:37.546Z,10.26
2023-05-25T02:55:43.498Z,10.19
2023-05-25T02:58:48.986Z,10.17
2023-05-25T03:01:53.070Z,10.16
2023-05-25T03:04:57.224Z,10.24
2023-05-25T03:08:01.630Z,10.24
2023-05-25T03:11:06.028Z,10.22
2023-05-25T03:14:11.112Z,10.20
2023-05-25T03:17:15.618Z,10.16
2023-05-25T03:20:20.886Z,10.14
2023-05-25T03:23:24.932Z,10.12
2023-05-25T03:26:29.101Z,10.12
2023-05-25T03:29:33.300Z,10.11
2023-05-25T03:32:37.878Z,10.11
2023-05-25T03:35:42.186Z,10.16
2023-05-25T03:38:46.389Z,10.17
2023-05-25T03:41:51.085Z,10.22
2023-05-25T03:44:55.478Z,10.20
2023-05-25T03:47:59.838Z,10.20
2023-05-25T03:51:04.418Z,10.23
2023-05-25T03:54:08.707Z,10.25
2023-05-25T03:57:12.649Z,10.21
2023-05-25T04:00:17.157Z,10.20
2023-05-25T04:03:22.264Z,10.24
2023-05-25T04:06:26.627Z,10.21
2023-05-25T04:09:30.738Z,10.21
2023-05-25T04:12:34.758Z,10.34
2023-05-25T04:15:39.175Z,10.32
2023-05-25T04:18:43.403Z,10.34
2023-05-25T04:21:47.701Z,10.27
2023-05-25T04:24:51.820Z,10.15
2023-05-25T04:27:56.784Z,10.10
2023-05-25T04:31:00.820Z,10.19
2023-05-25T04:34:04.844Z,10.24
2023-05-25T04:37:09.269Z,10.23
2023-05-25T04:40:14.280Z,10.32
2023-05-25T04:43:18.272Z,10.25
2023-05-25T04:46:22.372Z,10.32
2023-05-25T04:49:27.018Z,10.33
2023-05-25T04:52:31.220Z,10.45
2023-05-25T04:55:35.826Z,10.45
2023-05-25T04:58:39.830Z,10.59
2023-05-25T05:01:44.626Z,10.72
2023-05-25T05:04:52.470Z,10.81
2023-05-25T05:07:57.896Z,10.85
2023-05-25T05:11:01.883Z,10.85
2023-05-25T05:14:06.174Z,10.88
2023-05-25T05:17:10.490Z,10.95
2023-05-25T05:20:14.294Z,11.01
2023-05-25T05:23:18.532Z,11.10
2023-05-25T05:26:22.998Z,11.17
2023-05-25T05:29:28.692Z,11.25
2023-05-25T05:32:32.822Z,11.38
2023-05-25T05:35:37.142Z,11.53
2023-05-25T05:38:42.715Z,11.67
2023-05-25T05:41:46.629Z,11.84
2023-05-25T05:44:50.688Z,11.97
2023-05-25T05:47:54.973Z,12.09
2023-05-25T05:50:59.082Z,12.19
2023-05-25T05:54:04.111Z,12.39
2023-05-25T05:57:08.425Z,12.40
2023-05-25T06:00:13.299Z,12.49
2023-05-25T06:03:17.274Z,12.61
2023-05-25T06:06:21.723Z,12.73
2023-05-25T06:09:29.084Z,12.87
2023-05-25T06:12:33.125Z,12.81
2023-05-25T06:15:37.571Z,12.85
2023-05-25T06:18:41.842Z,12.73
2023-05-25T06:21:46.182Z,12.69
2023-05-25T06:24:49.872Z,12.81
2023-05-25T06:27:54.070Z,12.83
2023-05-25T06:30:58.442Z,12.91
2023-05-25T06:34:02.535Z,12.99
2023-05-25T06:37:07.061Z,12.96
2023-05-25T06:40:11.368Z,13.01
2023-05-25T06:43:15.384Z,13.12
2023-05-25T06:46:19.709Z,13.26
2023-05-25T06:49:23.504Z,13.40
2023-05-25T06:52:30.171Z,13.58
2023-05-25T06:55:34.069Z,13.72
2023-05-25T06:58:38.325Z,13.87
2023-05-25T07:01:42.399Z,14.16
2023-05-25T07:04:46.857Z,14.46
2023-05-25T07:07:51.058Z,14.46
2023-05-25T07:10:55.631Z,14.46
2023-05-25T07:13:59.852Z,14.79
2023-05-25T07:17:04.192Z,15.02
2023-05-25T07:20:08.964Z,15.21
2023-05-25T07:23:13.234Z,15.18
2023-05-25T07:26:17.743Z,15.32
2023-05-25T07:29:22.312Z,15.44
2023-05-25T07:32:26.830Z,15.55
2023-05-25T07:35:31.256Z,15.91
2023-05-25T07:38:35.426Z,16.35
2023-05-25T07:41:39.772Z,17.71
2023-05-25T07:44:44.224Z,18.07
2023-05-25T07:47:48.107Z,17.35
2023-05-25T07:50:52.558Z,17.25
2023-05-25T07:53:57.100Z,17.22
2023-05-25T07:57:01.609Z,17.54
2023-05-25T08:00:08.261Z,17.89
2023-05-25T08:03:13.625Z,17.57
2023-05-25T08:06:18.288Z,17.52
2023-05-25T08:09:22.385Z,17.97
2023-05-25T08:12:46.052Z,17.77
2023-05-25T08:15:50.808Z,16.99
2023-05-25T08:18:54.662Z,16.47
2023-05-25T08:21:59.363Z,16.36
2023-05-25T08:25:05.179Z,16.29
2023-05-25T08:28:09.565Z,16.31
2023-05-25T08:31:13.338Z,18.11
2023-05-25T08:34:17.346Z,19.69
2023-05-25T08:37:22.614Z,18.87
2023-05-25T08:40:28.852Z,18.05
2023-05-25T08:43:34.031Z,17.71
2023-05-25T08:46:38.034Z,17.50
2023-05-25T08:49:44.496Z,18.87
2023-05-25T08:52:51.739Z,20.15
2023-05-25T08:55:56.511Z,19.80
2023-05-25T08:59:15.071Z,19.37
2023-05-25T09:02:31.337Z,19.56
2023-05-25T09:05:38.029Z,19.55
2023-05-25T09:08:43.733Z,20.36
2023-05-25T09:11:47.762Z,20.02
2023-05-25T09:14:53.555Z,20.22
2023-05-25T09:17:58.404Z,19.35
2023-05-25T09:21:03.109Z,18.56
2023-05-25T09:24:07.682Z,17.89
2023-05-25T09:27:16.438Z,17.68
2023-05-25T09:30:20.510Z,18.30
2023-05-25T09:33:24.493Z,18.72
2023-05-25T09:36:29.113Z,18.85
2023-05-25T09:39:33.300Z,19.25
2023-05-25T09:42:38.073Z,19.32
2023-05-25T09:45:42.415Z,19.13
2023-05-25T09:48:48.589Z,18.65
2023-05-25T09:51:53.180Z,18.11
2023-05-25T09:54:57.533Z,17.79
2023-05-25T09:58:01.479Z,17.94
2023-05-25T10:01:05.783Z,18.21
2023-05-25T10:04:09.880Z,18.38
2023-05-25T10:07:14.502Z,18.70
2023-05-25T10:10:19.340Z,19.07
2023-05-25T10:13:27.175Z,19.23
2023-05-25T10:16:33.805Z,18.92
2023-05-25T10:19:54.660Z,18.40
2023-05-25T10:23:09.546Z,17.98
2023-05-25T10:26:22.743Z,17.92
2023-05-25T10:29:29.856Z,17.98
2023-05-25T10:32:36.442Z,18.36
2023-05-25T10:35:56.144Z,18.58
2023-05-25T10:39:09.084Z,18.57
2023-05-25T10:42:13.546Z,18.40
2023-05-25T10:45:18.977Z,18.20
2023-05-25T10:48:23.669Z,17.85
2023-05-25T10:51:41.458Z,17.81
2023-05-25T10:54:47.087Z,18.13
2023-05-25T10:58:07.488Z,18.19
2023-05-25T11:01:13.188Z,17.92
2023-05-25T11:04:17.366Z,18.09
2023-05-25T11:07:21.907Z,18.45
2023-05-25T11:10:50.366Z,19.11
2023-05-25T11:13:54.679Z,19.34
2023-05-25T11:17:11.770Z,19.07
2023-05-25T11:20:26.133Z,18.96
2023-05-25T11:23:30.720Z,19.04
2023-05-25T11:26:35.834Z,19.30
2023-05-25T11:29:40.917Z,19.37
2023-05-25T11:32:51.406Z,19.52
2023-05-25T11:35:57.564Z,19.33
2023-05-25T11:39:13.929Z,19.32
2023-05-25T11:42:23.465Z,19.28
2023-05-25T11:45:33.872Z,19.29
2023-05-25T11:48:43.675Z,19.41
2023-05-25T11:51:47.748Z,19.40
2023-05-25T11:54:53.320Z,19.29
2023-05-25T11:57:58.424Z,19.33
2023-05-25T12:01:15.583Z,19.50
2023-05-25T12:04:22.361Z,19.64
2023-05-25T12:07:29.309Z,19.53
2023-05-25T12:10:33.751Z,19.59
2023-05-25T12:13:40.917Z,19.75
2023-05-25T12:16:45.598Z,19.63
2023-05-25T12:19:50.107Z,19.33
2023-05-25T12:22:54.606Z,19.25
2023-05-25T12:26:13.910Z,19.32
2023-05-25T12:29:18.122Z,19.38
2023-05-25T12:32:22.232Z,19.46
2023-05-25T12:35:26.372Z,19.58
2023-05-25T12:38:30.606Z,19.54
2023-05-25T12:41:48.341Z,19.24
2023-05-25T12:44:57.885Z,19.12
2023-05-25T12:48:02.469Z,19.00
2023-05-25T12:51:06.608Z,19.09
2023-05-25T12:54:10.505Z,19.27
2023-05-25T12:57:17.486Z,19.41
2023-05-25T13:00:27.510Z,19.44
2023-05-25T13:03:32.236Z,19.37
2023-05-25T13:06:36.562Z,19.38
2023-05-25T13:09:40.490Z,19.30
2023-05-25T13:12:48.897Z,19.29
2023-05-25T13:15:53.856Z,19.29
2023-05-25T13:18:57.752Z,19.38
2023-05-25T13:22:01.859Z,19.44
2023-05-25T13:25:06.004Z,19.27
2023-05-25T13:28:10.104Z,19.36
2023-05-25T13:31:13.993Z,19.33
2023-05-25T13:34:18.186Z,19.37
2023-05-25T13:37:22.305Z,19.35
2023-05-25T13:40:26.420Z,19.27
2023-05-25T13:43:30.524Z,19.15
2023-05-25T13:46:37.446Z,19.13
2023-05-25T13:49:41.651Z,18.95
2023-05-25T13:52:45.864Z,18.79
2023-05-25T13:55:50.125Z,18.91
2023-05-25T13:58:54.411Z,18.99
2023-05-25T14:01:58.592Z,19.13
2023-05-25T14:05:02.610Z,19.13
2023-05-25T14:08:07.831Z,19.28
2023-05-25T14:11:12.079Z,19.37
2023-05-25T14:14:30.184Z,19.42
2023-05-25T14:17:36.220Z,19.54
2023-05-25T14:20:42.605Z,19.58
2023-05-25T14:23:46.797Z,19.61
2023-05-25T14:26:51.050Z,19.49
2023-05-25T14:29:55.425Z,19.59
2023-05-25T14:32:59.734Z,19.63
2023-05-25T14:36:03.851Z,19.58
2023-05-25T14:39:08.382Z,19.28
2023-05-25T14:42:13.922Z,19.22
2023-05-25T14:45:18.966Z,19.19
2023-05-25T14:48:25.463Z,19.28
2023-05-25T14:51:29.475Z,19.21
2023-05-25T14:54:33.537Z,19.42
2023-05-25T14:57:37.627Z,19.48
2023-05-25T15:00:41.786Z,19.56
2023-05-25T15:03:45.821Z,19.54
2023-05-25T15:06:50.083Z,19.51
2023-05-25T15:09:53.888Z,19.55
2023-05-25T15:12:58.030Z,19.67
2023-05-25T15:16:02.243Z,19.70
2023-05-25T15:19:07.059Z,19.88
2023-05-25T15:22:12.128Z,20.07
2023-05-25T15:25:24.592Z,20.08
2023-05-25T15:28:35.536Z,20.00
2023-05-25T15:31:39.955Z,19.93
2023-05-25T15:34:45.852Z,19.92
2023-05-25T15:37:49.843Z,19.83
2023-05-25T15:40:53.694Z,19.83
2023-05-25T15:44:00.790Z,19.50
2023-05-25T15:47:05.322Z,19.39
2023-05-25T15:50:10.254Z,19.29
2023-05-25T15:53:14.626Z,19.21
2023-05-25T15:56:18.686Z,19.02
2023-05-25T15:59:22.415Z,18.91
2023-05-25T16:02:26.523Z,18.87
2023-05-25T16:05:30.646Z,18.86
2023-05-25T16:08:34.799Z,18.89
2023-05-25T16:11:38.709Z,18.79
2023-05-25T16:14:42.799Z,18.78
2023-05-25T16:17:46.699Z,18.87
2023-05-25T16:20:55.843Z,18.88
2023-05-25T16:23:59.908Z,18.96
2023-05-25T16:27:03.934Z,18.98
2023-05-25T16:30:08.872Z,18.89
2023-05-25T16:33:14.556Z,18.85
2023-05-25T16:36:18.829Z,18.80
2023-05-25T16:39:23.196Z,18.67
2023-05-25T16:42:27.193Z,18.59
2023-05-25T16:45:31.172Z,18.65
2023-05-25T16:48:35.362Z,18.69
2023-05-25T16:51:39.690Z,18.70
2023-05-25T16:54:43.952Z,18.68
2023-05-25T16:57:48.167Z,18.67
2023-05-25T17:00:52.390Z,18.72
2023-05-25T17:03:56.383Z,18.60
2023-05-25T17:07:00.759Z,18.56
2023-05-25T17:10:06.897Z,18.59
2023-05-25T17:13:10.763Z,18.52
2023-05-25T17:16:14.520Z,18.49
2023-05-25T17:19:18.374Z,18.38
2023-05-25T17:22:22.807Z,18.40
2023-05-25T17:25:28.167Z,18.39
2023-05-25T17:28:32.992Z,18.37
2023-05-25T17:31:37.486Z,18.38
2023-05-25T17:34:41.554Z,18.25
2023-05-25T17:37:45.489Z,18.14
2023-05-25T17:40:50.314Z,18.21
2023-05-25T17:43:54.806Z,18.18
2023-05-25T17:46:58.620Z,17.96
2023-05-25T17:50:02.436Z,17.90
2023-05-25T17:53:06.494Z,17.97
2023-05-25T17:56:10.409Z,17.93
2023-05-25T17:59:14.211Z,17.95
2023-05-25T18:02:18.564Z,17.88
2023-05-25T18:05:22.816Z,17.93
2023-05-25T18:08:26.824Z,17.92
2023-05-25T18:11:33.472Z,17.79
2023-05-25T18:14:37.803Z,17.67
2023-05-25T18:17:41.663Z,17.78
2023-05-25T18:20:45.824Z,17.77
2023-05-25T18:23:49.890Z,17.65
2023-05-25T18:26:54.010Z,17.55
2023-05-25T18:29:58.952Z,17.49
2023-05-25T18:33:02.814Z,17.50
2023-05-25T18:36:07.067Z,17.42
2023-05-25T18:39:11.281Z,17.34
2023-05-25T18:42:15.601Z,17.33
2023-05-25T18:45:19.822Z,17.28
2023-05-25T18:48:24.142Z,17.24
2023-05-25T18:51:27.852Z,17.14
2023-05-25T18:54:32.277Z,17.13
2023-05-25T18:57:36.469Z,17.07
2023-05-25T19:00:40.696Z,16.98
2023-05-25T19:03:44.720Z,16.96
2023-05-25T19:06:49.025Z,16.88
2023-05-25T19:09:52.969Z,16.82
2023-05-25T19:12:57.094Z,16.77
2023-05-25T19:16:03.267Z,16.70
2023-05-25T19:19:07.532Z,16.63
2023-05-25T19:22:11.606Z,16.57
2023-05-25T19:25:15.891Z,16.49
2023-05-25T19:28:20.274Z,16.44
2023-05-25T19:31:24.527Z,16.39
2023-05-25T19:34:28.671Z,16.31
2023-05-25T19:37:32.649Z,16.26
2023-05-25T19:40:36.972Z,16.21
2023-05-25T19:43:41.215Z,16.18
2023-05-25T19:46:45.483Z,16.14
2023-05-25T19:49:49.685Z,16.08
2023-05-25T19:52:53.806Z,16.07
2023-05-25T19:55:58.222Z,16.02
2023-05-25T19:59:02.061Z,16.00
2023-05-25T20:02:06.452Z,15.92
2023-05-25T20:05:11.595Z,15.94
2023-05-25T20:08:15.670Z,15.85
2023-05-25T20:11:20.028Z,15.84
2023-05-25T20:14:24.248Z,15.80
2023-05-25T20:17:28.225Z,15.71
2023-05-25T20:20:32.203Z,15.63
2023-05-25T20:23:36.414Z,15.61
2023-05-25T20:26:40.533Z,15.61
2023-05-25T20:29:44.624Z,15.54
2023-05-25T20:32:49.176Z,15.52
2023-05-25T20:35:53.406Z,15.49
2023-05-25T20:38:57.622Z,15.46
2023-05-25T20:42:02.644Z,15.43
2023-05-25T20:45:07.280Z,15.40
2023-05-25T20:48:11.108Z,15.37
2023-05-25T20:51:14.870Z,15.36
2023-05-25T20:54:19.303Z,15.31
2023-05-25T20:57:23.667Z,15.29
2023-05-25T21:00:27.772Z,15.27
2023-05-25T21:03:31.991Z,15.23
2023-05-25T21:06:36.532Z,15.22
2023-05-25T21:09:40.621Z,15.18
2023-05-25T21:12:44.844Z,15.18
2023-05-25T21:15:48.921Z,15.13
2023-05-25T21:18:52.924Z,15.10
2023-05-25T21:21:56.978Z,15.09
2023-05-25T21:25:00.907Z,15.10
2023-05-25T21:28:04.770Z,15.07
2023-05-25T21:31:08.850Z,15.05
2023-05-25T21:34:13.238Z,14.99
2023-05-25T21:37:17.478Z,14.94
2023-05-25T21:40:21.630Z,14.89
2023-05-25T21:43:27.188Z,14.85
2023-05-25T21:46:31.119Z,14.81
2023-05-25T21:49:35.441Z,14.79
2023-05-25T21:52:39.402Z,14.78
2023-05-25T21:55:44.195Z,14.82
2023-05-25T21:58:48.379Z,14.76
2023-05-25T22:01:52.546Z,14.67
2023-05-25T22:04:57.258Z,14.67
2023-05-25T22:08:04.539Z,14.65
2023-05-25T22:11:08.523Z,14.59
2023-05-25T22:14:13.034Z,14.53
2023-05-25T22:17:18.859Z,14.53
2023-05-25T22:20:22.913Z,14.54
2023-05-25T22:23:27.121Z,14.50
2023-05-25T22:26:31.412Z,14.49
2023-05-25T22:29:35.535Z,14.42
2023-05-25T22:32:39.527Z,14.36
2023-05-25T22:35:43.642Z,14.35
2023-05-25T22:38:48.259Z,14.31
2023-05-25T22:41:52.926Z,14.31
2023-05-25T22:44:57.064Z,14.27
2023-05-25T22:48:01.134Z,14.25
2023-05-25T22:51:05.089Z,14.21
2023-05-25T22:54:08.874Z,14.16
2023-05-25T22:57:13.190Z,14.11
2023-05-25T23:00:17.380Z,14.14
2023-05-25T23:03:21.122Z,14.11
2023-05-25T23:06:25.337Z,14.12
2023-05-25T23:09:29.370Z,14.13
2023-05-25T23:12:33.497Z,14.07
2023-05-25T23:15:39.733Z,14.02
2023-05-25T23:18:43.914Z,13.96
2023-05-25T23:21:48.270Z,13.93
2023-05-25T23:24:52.328Z,13.89
2023-05-25T23:27:56.373Z,13.87
2023-05-25T23:31:00.469Z,13.79
2023-05-25T23:34:04.242Z,13.79
2023-05-25T23:37:08.251Z,13.76
2023-05-25T23:40:12.565Z,13.72
2023-05-25T23:43:17.069Z,13.72
2023-05-25T23:46:21.267Z,13.66
2023-05-25T23:49:25.482Z,13.63
2023-05-25T23:52:29.611Z,13.58
2023-05-25T23:55:33.993Z,13.51
2023-05-25T23:58:38.298Z,13.50
